sensor_id;sensor_type;location;lat;lon;timestamp;pressure;altitude;pressure_sealevel;temperature;humidity
50087;BME280;35967;50.718;7.050;2023-02-03T00:01:39;101843.47;;;9.03;89.27
50087;BME280;35967;50.718;7.050;2023-02-03T00:11:44;101831.50;;;8.99;89.62
50087;BME280;35967;50.718;7.050;2023-02-03T00:21:47;101800.66;;;9.02;89.13
50087;BME280;35967;50.718;7.050;2023-02-03T00:31:52;101783.59;;;9.12;88.28
50087;BME280;35967;50.718;7.050;2023-02-03T00:41:55;101771.56;;;9.08;88.39
50087;BME280;35967;50.718;7.050;2023-02-03T00:52:00;101750.16;;;9.10;87.95
50087;BME280;35967;50.718;7.050;2023-02-03T01:02:03;101765.59;;;9.13;87.46
50087;BME280;35967;50.718;7.050;2023-02-03T01:12:08;101733.91;;;9.16;86.96
50087;BME280;35967;50.718;7.050;2023-02-03T01:22:11;101735.63;;;9.19;86.47
50087;BME280;35967;50.718;7.050;2023-02-03T01:32:16;101746.75;;;9.18;86.19
50087;BME280;35967;50.718;7.050;2023-02-03T01:42:19;101789.56;;;9.11;86.08
50087;BME280;35967;50.718;7.050;2023-02-03T01:52:24;101791.28;;;9.09;85.71
50087;BME280;35967;50.718;7.050;2023-02-03T02:02:29;101801.59;;;9.17;85.78
50087;BME280;35967;50.718;7.050;2023-02-03T02:12:34;101799.84;;;9.14;85.38
50087;BME280;35967;50.718;7.050;2023-02-03T02:22:45;101787.84;;;9.18;85.28
50087;BME280;35967;50.718;7.050;2023-02-03T02:33:07;101783.59;;;9.17;84.87
50087;BME280;35967;50.718;7.050;2023-02-03T02:43:18;101769.00;;;9.14;83.99
50087;BME280;35967;50.718;7.050;2023-02-03T02:53:27;101738.22;;;9.22;83.30
50087;BME280;35967;50.718;7.050;2023-02-03T03:03:32;101724.50;;;9.15;82.45
50087;BME280;35967;50.718;7.050;2023-02-03T03:13:39;101739.94;;;9.21;81.19
50087;BME280;35967;50.718;7.050;2023-02-03T03:23:47;101741.63;;;9.18;81.35
50087;BME280;35967;50.718;7.050;2023-02-03T03:33:53;101747.63;;;9.18;82.33
50087;BME280;35967;50.718;7.050;2023-02-03T03:44:00;101739.94;;;9.17;82.75
50087;BME280;35967;50.718;7.050;2023-02-03T03:54:07;101750.22;;;9.17;82.37
50087;BME280;35967;50.718;7.050;2023-02-03T04:04:14;101726.22;;;9.19;82.73
50087;BME280;35967;50.718;7.050;2023-02-03T04:14:19;101740.78;;;9.17;82.66
50087;BME280;35967;50.718;7.050;2023-02-03T04:24:22;101729.63;;;9.13;83.00
50087;BME280;35967;50.718;7.050;2023-02-03T04:34:28;101691.97;;;9.15;82.20
50087;BME280;35967;50.718;7.050;2023-02-03T04:44:31;101729.66;;;9.23;81.47
50087;BME280;35967;50.718;7.050;2023-02-03T04:54:35;101702.25;;;9.15;80.64
50087;BME280;35967;50.718;7.050;2023-02-03T05:04:39;101724.50;;;9.26;80.04
50087;BME280;35967;50.718;7.050;2023-02-03T05:14:45;101737.34;;;9.29;79.94
50087;BME280;35967;50.718;7.050;2023-02-03T05:24:48;101715.94;;;9.22;80.41
50087;BME280;35967;50.718;7.050;2023-02-03T05:34:53;101727.06;;;9.30;80.49
50087;BME280;35967;50.718;7.050;2023-02-03T05:44:56;101729.63;;;9.26;81.21
50087;BME280;35967;50.718;7.050;2023-02-03T05:55:00;101720.22;;;9.32;81.01
50087;BME280;35967;50.718;7.050;2023-02-03T06:05:04;101721.09;;;9.31;80.92
50087;BME280;35967;50.718;7.050;2023-02-03T06:15:10;101706.53;;;9.29;80.36
50087;BME280;35967;50.718;7.050;2023-02-03T06:25:14;101721.09;;;9.36;80.07
50087;BME280;35967;50.718;7.050;2023-02-03T06:35:19;101722.81;;;9.31;79.84
50087;BME280;35967;50.718;7.050;2023-02-03T06:45:22;101719.38;;;9.32;79.89
50087;BME280;35967;50.718;7.050;2023-02-03T06:55:27;101739.06;;;9.31;79.01
50087;BME280;35967;50.718;7.050;2023-02-03T07:05:31;101705.66;;;9.38;78.41
50087;BME280;35967;50.718;7.050;2023-02-03T07:15:35;101710.81;;;9.41;78.19
50087;BME280;35967;50.718;7.050;2023-02-03T07:25:39;101725.38;;;9.45;77.79
50087;BME280;35967;50.718;7.050;2023-02-03T07:35:43;101733.94;;;9.39;77.82
50087;BME280;35967;50.718;7.050;2023-02-03T07:45:47;101733.09;;;9.46;77.50
50087;BME280;35967;50.718;7.050;2023-02-03T07:55:52;101744.22;;;9.59;77.75
50087;BME280;35967;50.718;7.050;2023-02-03T08:05:56;101740.78;;;9.59;77.85
50087;BME280;35967;50.718;7.050;2023-02-03T08:16:00;101772.50;;;9.61;77.72
50087;BME280;35967;50.718;7.050;2023-02-03T08:26:04;101766.50;;;9.56;78.23
50087;BME280;35967;50.718;7.050;2023-02-03T08:36:09;101767.34;;;9.64;78.40
50087;BME280;35967;50.718;7.050;2023-02-03T08:46:13;101762.22;;;9.61;78.15
50087;BME280;35967;50.718;7.050;2023-02-03T08:56:17;101777.63;;;9.70;78.19
50087;BME280;35967;50.718;7.050;2023-02-03T09:06:20;101778.50;;;9.68;78.23
50087;BME280;35967;50.718;7.050;2023-02-03T09:16:28;101768.22;;;9.72;78.47
50087;BME280;35967;50.718;7.050;2023-02-03T09:26:32;101770.78;;;9.69;79.33
50087;BME280;35967;50.718;7.050;2023-02-03T09:36:36;101781.84;;;10.13;80.02
50087;BME280;35967;50.718;7.050;2023-02-03T09:46:43;101772.50;;;9.61;81.18
50087;BME280;35967;50.718;7.050;2023-02-03T09:57:13;101758.75;;;9.70;82.15
50087;BME280;35967;50.718;7.050;2023-02-03T10:07:25;101751.94;;;9.64;83.19
50087;BME280;35967;50.718;7.050;2023-02-03T10:17:37;101778.47;;;9.92;82.86
50087;BME280;35967;50.718;7.050;2023-02-03T10:27:42;101791.34;;;9.69;84.60
50087;BME280;35967;50.718;7.050;2023-02-03T10:37:49;101817.91;;;9.76;84.46
50087;BME280;35967;50.718;7.050;2023-02-03T10:47:54;101809.34;;;9.77;85.06
50087;BME280;35967;50.718;7.050;2023-02-03T10:58:05;101787.91;;;9.86;85.08
50087;BME280;35967;50.718;7.050;2023-02-03T11:08:13;101785.28;;;10.07;85.39
50087;BME280;35967;50.718;7.050;2023-02-03T11:18:35;101762.16;;;10.07;86.00
50087;BME280;35967;50.718;7.050;2023-02-03T11:28:41;101786.16;;;10.17;86.25
50087;BME280;35967;50.718;7.050;2023-02-03T11:38:46;101762.13;;;10.17;86.61
50087;BME280;35967;50.718;7.050;2023-02-03T11:49:02;101768.16;;;10.17;86.82
50087;BME280;35967;50.718;7.050;2023-02-03T12:09:41;101782.72;;;10.15;87.33
50087;BME280;35967;50.718;7.050;2023-02-03T12:20:04;101780.16;;;10.01;88.92
50087;BME280;35967;50.718;7.050;2023-02-03T12:30:21;101761.31;;;9.98;88.55
50087;BME280;35967;50.718;7.050;2023-02-03T12:40:34;101764.72;;;9.98;89.35
50087;BME280;35967;50.718;7.050;2023-02-03T12:50:41;101775.88;;;10.09;89.72
50087;BME280;35967;50.718;7.050;2023-02-03T13:00:52;101781.91;;;10.01;89.74
50087;BME280;35967;50.718;7.050;2023-02-03T13:11:08;101759.59;;;10.00;90.13
50087;BME280;35967;50.718;7.050;2023-02-03T13:21:17;101778.47;;;9.99;90.92
50087;BME280;35967;50.718;7.050;2023-02-03T13:31:30;101767.34;;;9.90;92.21
50087;BME280;35967;50.718;7.050;2023-02-03T13:41:43;101769.03;;;9.94;92.73
50087;BME280;35967;50.718;7.050;2023-02-03T13:51:52;101771.63;;;9.85;93.91
50087;BME280;35967;50.718;7.050;2023-02-03T14:02:39;101794.78;;;9.87;95.21
50087;BME280;35967;50.718;7.050;2023-02-03T14:12:56;101783.63;;;9.71;97.16
50087;BME280;35967;50.718;7.050;2023-02-03T14:23:09;101791.34;;;9.69;98.39
50087;BME280;35967;50.718;7.050;2023-02-03T14:33:13;101799.03;;;9.61;100.00
50087;BME280;35967;50.718;7.050;2023-02-03T14:43:33;101796.47;;;9.54;100.00
50087;BME280;35967;50.718;7.050;2023-02-03T14:53:55;101815.31;;;9.43;100.00
50087;BME280;35967;50.718;7.050;2023-02-03T15:04:21;101789.63;;;9.37;100.00
50087;BME280;35967;50.718;7.050;2023-02-03T15:14:26;101798.19;;;9.41;100.00
50087;BME280;35967;50.718;7.050;2023-02-03T15:24:35;101820.44;;;9.39;100.00
50087;BME280;35967;50.718;7.050;2023-02-03T15:34:42;101829.91;;;9.47;100.00
50087;BME280;35967;50.718;7.050;2023-02-03T15:44:51;101867.56;;;9.47;100.00
50087;BME280;35967;50.718;7.050;2023-02-03T15:55:02;101849.59;;;9.49;100.00
50087;BME280;35967;50.718;7.050;2023-02-03T16:05:21;101847.91;;;9.54;100.00
50087;BME280;35967;50.718;7.050;2023-02-03T16:15:26;101857.31;;;9.52;100.00
50087;BME280;35967;50.718;7.050;2023-02-03T16:25:32;101867.63;;;9.59;99.55
50087;BME280;35967;50.718;7.050;2023-02-03T16:35:36;101870.19;;;9.53;100.00
50087;BME280;35967;50.718;7.050;2023-02-03T16:45:59;101896.72;;;9.54;100.00
50087;BME280;35967;50.718;7.050;2023-02-03T16:56:20;101887.28;;;9.46;100.00
50087;BME280;35967;50.718;7.050;2023-02-03T17:06:24;101897.53;;;9.36;100.00
50087;BME280;35967;50.718;7.050;2023-02-03T17:16:28;101912.94;;;9.31;100.00
50087;BME280;35967;50.718;7.050;2023-02-03T17:26:32;101936.94;;;9.38;100.00
50087;BME280;35967;50.718;7.050;2023-02-03T17:36:35;101953.13;;;9.13;100.00
50087;BME280;35967;50.718;7.050;2023-02-03T17:46:40;101947.16;;;9.22;100.00
50087;BME280;35967;50.718;7.050;2023-02-03T17:57:02;101953.97;;;9.12;100.00
50087;BME280;35967;50.718;7.050;2023-02-03T18:07:07;101957.41;;;9.18;100.00
50087;BME280;35967;50.718;7.050;2023-02-03T18:17:10;101974.53;;;9.19;100.00
50087;BME280;35967;50.718;7.050;2023-02-03T18:27:14;101989.91;;;9.08;100.00
50087;BME280;35967;50.718;7.050;2023-02-03T18:37:18;101995.88;;;9.07;99.16
50087;BME280;35967;50.718;7.050;2023-02-03T18:47:22;102008.75;;;9.08;97.70
50087;BME280;35967;50.718;7.050;2023-02-03T18:57:25;102026.72;;;9.04;97.54
50087;BME280;35967;50.718;7.050;2023-02-03T19:07:30;102039.63;;;9.14;98.07
50087;BME280;35967;50.718;7.050;2023-02-03T19:17:34;102055.84;;;9.10;99.62
50087;BME280;35967;50.718;7.050;2023-02-03T19:27:38;102043.03;;;9.15;100.00
50087;BME280;35967;50.718;7.050;2023-02-03T19:37:41;102054.19;;;9.19;100.00
50087;BME280;35967;50.718;7.050;2023-02-03T19:47:45;102064.47;;;9.17;100.00
50087;BME280;35967;50.718;7.050;2023-02-03T19:57:49;102076.50;;;9.23;97.86
50087;BME280;35967;50.718;7.050;2023-02-03T20:07:53;102087.63;;;9.22;96.63
50087;BME280;35967;50.718;7.050;2023-02-03T20:17:57;102094.50;;;9.30;95.91
50087;BME280;35967;50.718;7.050;2023-02-03T20:28:01;102103.06;;;9.25;96.18
50087;BME280;35967;50.718;7.050;2023-02-03T20:38:05;102108.09;;;9.14;95.91
50087;BME280;35967;50.718;7.050;2023-02-03T20:48:11;102112.97;;;10.28;94.01
50087;BME280;35967;50.718;7.050;2023-02-03T20:58:17;102109.91;;;9.24;92.21
50087;BME280;35967;50.718;7.050;2023-02-03T21:08:22;102121.91;;;9.24;92.13
50087;BME280;35967;50.718;7.050;2023-02-03T21:18:31;102127.00;;;9.21;91.78
50087;BME280;35967;50.718;7.050;2023-02-03T21:28:36;102151.84;;;9.20;91.88
50087;BME280;35967;50.718;7.050;2023-02-03T21:38:40;102161.28;;;9.23;91.88
50087;BME280;35967;50.718;7.050;2023-02-03T21:48:47;102148.34;;;9.13;93.24
50087;BME280;35967;50.718;7.050;2023-02-03T21:58:53;102155.31;;;9.27;92.11
50087;BME280;35967;50.718;7.050;2023-02-03T22:09:00;102173.22;;;9.16;91.35
50087;BME280;35967;50.718;7.050;2023-02-03T22:19:03;102173.16;;;9.10;90.25
50087;BME280;35967;50.718;7.050;2023-02-03T22:29:07;102186.94;;;9.20;91.25
50087;BME280;35967;50.718;7.050;2023-02-03T22:39:11;102198.88;;;9.13;92.65
50087;BME280;35967;50.718;7.050;2023-02-03T22:49:15;102219.44;;;9.18;91.73
50087;BME280;35967;50.718;7.050;2023-02-03T22:59:18;102213.34;;;9.02;91.14
50087;BME280;35967;50.718;7.050;2023-02-03T23:09:23;102215.84;;;8.97;91.96
50087;BME280;35967;50.718;7.050;2023-02-03T23:19:26;102243.25;;;8.96;92.05
50087;BME280;35967;50.718;7.050;2023-02-03T23:29:30;102255.16;;;8.90;92.04
50087;BME280;35967;50.718;7.050;2023-02-03T23:39:34;102250.81;;;8.81;91.79
50087;BME280;35967;50.718;7.050;2023-02-03T23:49:39;102273.97;;;8.89;91.53
50087;BME280;35967;50.718;7.050;2023-02-03T23:59:42;102265.28;;;8.77;91.68
